Time;durP1;ratioP1;P1;durP2;ratioP2;P2;SDS_P1;SDS_P2;PMS_P1;PMS_P2;Temp;Humidity;BMP_temperature;BMP_pressure;BME280_temperature;BME280_humidity;BME280_pressure;Samples;Min_cycle;Max_cycle;Signal;HPM_P1;HPM_P2
2021/06/12 00:01:21;;;;;;;5.63;3.45;;;;;;;17.77;60.80;99949.50;6350663;28;20040;-60
2021/06/12 00:04:23;;;;;;;3.67;3.20;;;;;;;17.79;62.41;99950.19;6332663;28;20050;-59
2021/06/12 00:07:24;;;;;;;5.35;3.20;;;;;;;17.75;61.07;99941.75;6349430;28;20046;-60
2021/06/12 00:10:37;;;;;;;8.52;3.22;;;;;;;17.77;61.09;99939.81;6349073;28;20055;-60
2021/06/12 00:13:37;;;;;;;12.05;3.67;;;;;;;17.79;61.83;99942.28;6350479;28;20044;-59
2021/06/12 00:16:38;;;;;;;4.65;2.97;;;;;;;17.77;61.96;99946.88;6350386;28;20121;-59
2021/06/12 00:19:39;;;;;;;3.85;2.95;;;;;;;17.75;62.18;99946.19;6350258;28;20108;-59
2021/06/12 00:22:42;;;;;;;4.55;3.25;;;;;;;17.67;63.13;99950.38;6350186;28;20482;-60
2021/06/12 00:25:43;;;;;;;6.45;3.22;;;;;;;17.73;63.02;99941.06;6332332;28;20553;-59
2021/06/12 00:28:44;;;;;;;4.55;3.20;;;;;;;17.76;62.34;99948.69;6348959;28;20047;-59
2021/06/12 00:31:45;;;;;;;5.32;3.33;;;;;;;17.76;63.29;99946.03;6349991;28;20047;-60
2021/06/12 00:34:46;;;;;;;7.90;3.35;;;;;;;17.78;63.60;99946.72;6349933;28;20062;-59
2021/06/12 00:37:46;;;;;;;5.10;3.15;;;;;;;17.77;64.37;99946.88;6348918;28;20051;-59
2021/06/12 00:40:47;;;;;;;5.47;3.38;;;;;;;17.68;64.40;99946.75;6349813;28;20105;-59
2021/06/12 00:43:48;;;;;;;6.53;3.63;;;;;;;17.80;64.03;99942.16;6349734;28;20047;-59
2021/06/12 00:46:49;;;;;;;7.73;3.40;;;;;;;17.80;64.36;99942.16;6347073;28;20040;-60
2021/06/12 00:49:50;;;;;;;16.63;3.60;;;;;;;17.78;64.58;99946.72;6348354;28;20046;-59
2021/06/12 00:52:51;;;;;;;5.30;3.35;;;;;;;17.73;65.01;99941.88;6349457;28;20041;-59
2021/06/12 00:55:53;;;;;;;4.40;3.45;;;;;;;17.73;64.57;99946.34;6349826;28;20047;-59
2021/06/12 00:58:54;;;;;;;;;;;;;;;17.75;65.11;99944.41;6332052;28;20047;-59
2021/06/12 01:01:55;;;;;;;6.68;3.03;;;;;;;17.77;65.13;99944.22;6349168;27;19942;-59
2021/06/12 01:04:56;;;;;;;4.75;3.05;;;;;;;17.75;65.20;99947.03;6347964;28;20071;-60
2021/06/12 01:07:57;;;;;;;7.30;3.63;;;;;;;17.76;65.88;99940.75;6349266;28;20044;-60
2021/06/12 01:10:58;;;;;;;6.82;3.20;;;;;;;17.76;65.08;99938.13;6330922;28;20051;-62
2021/06/12 01:14:06;;;;;;;6.00;3.50;;;;;;;17.75;65.44;99944.41;6348926;28;20052;-60
2021/06/12 01:17:33;;;;;;;5.75;3.42;;;;;;;17.71;65.89;99943.00;6348997;28;20046;-60
2021/06/12 01:20:59;;;;;;;4.82;3.20;;;;;;;17.71;65.59;99940.38;6348751;28;20486;-59
2021/06/12 01:24:30;;;;;;;6.57;3.50;;;;;;;17.78;65.81;99932.72;6348600;28;20046;-59
2021/06/12 01:27:44;;;;;;;4.97;3.60;;;;;;;17.77;65.99;99933.66;6348740;28;20071;-59
2021/06/12 01:30:49;;;;;;;6.55;3.80;;;;;;;17.67;66.11;99928.44;6348568;28;20486;-60
2021/06/12 01:33:52;;;;;;;6.15;3.40;;;;;;;17.58;66.46;99924.81;6348631;28;20051;-60
2021/06/12 01:36:55;;;;;;;8.70;3.70;;;;;;;17.58;66.97;99930.09;6347221;28;20510;-60
2021/06/12 01:39:57;;;;;;;4.93;3.70;;;;;;;17.60;66.96;99930.78;6348449;28;20441;-59
2021/06/12 01:42:59;;;;;;;6.47;3.30;;;;;;;17.59;67.19;99925.69;6346975;28;20032;-59
2021/06/12 01:46:02;;;;;;;6.07;3.38;;;;;;;17.56;67.04;99918.84;6347081;28;20071;-59
2021/06/12 01:49:03;;;;;;;10.30;3.30;;;;;;;17.55;66.77;99916.38;6348203;28;20075;-60
2021/06/12 01:52:06;;;;;;;4.47;3.30;;;;;;;17.53;67.00;99911.25;6347057;28;20058;-60
2021/06/12 01:55:07;;;;;;;;;;;;;;;17.55;67.51;99911.13;6347309;28;20132;-59
2021/06/12 01:58:14;;;;;;;5.38;2.88;;;;;;;17.52;67.05;99907.78;6347454;28;19927;-60
2021/06/12 02:01:18;;;;;;;6.00;3.35;;;;;;;17.48;66.74;99903.75;6347839;28;20054;-60
2021/06/12 02:04:20;;;;;;;5.93;3.22;;;;;;;17.47;66.96;99902.09;6346545;28;20040;-60
2021/06/12 02:07:21;;;;;;;6.32;2.88;;;;;;;17.40;66.96;99898.38;6346589;28;20084;-61
2021/06/12 02:10:27;;;;;;;7.43;3.13;;;;;;;17.41;67.20;99896.56;6347423;28;20056;-60
2021/06/12 02:13:28;;;;;;;4.88;3.10;;;;;;;17.47;67.52;99902.09;6347573;28;20051;-60
2021/06/12 02:16:29;;;;;;;4.65;2.90;;;;;;;17.48;67.46;99897.63;6347457;28;20036;-60
2021/06/12 02:19:30;;;;;;;5.82;3.15;;;;;;;17.44;67.99;99899.75;6347812;28;20540;-60
2021/06/12 02:22:32;;;;;;;4.05;2.83;;;;;;;17.42;67.75;99898.19;6329178;28;20097;-60
2021/06/12 02:25:33;;;;;;;2.85;2.53;;;;;;;17.42;67.25;99903.47;6347213;28;20042;-61
2021/06/12 02:28:35;;;;;;;4.73;2.67;;;;;;;17.48;67.51;99902.91;6363355;27;20074;-60
2021/06/12 02:31:41;;;;;;;6.68;2.90;;;;;;;17.48;66.54;99898.50;6347082;28;20066;-60
2021/06/12 02:34:42;;;;;;;7.18;2.85;;;;;;;17.58;66.93;99892.34;6347202;28;20043;-60
2021/06/12 02:37:44;;;;;;;5.05;2.92;;;;;;;17.61;66.96;99884.16;6345833;28;20040;-60
2021/06/12 02:40:45;;;;;;;6.00;2.60;;;;;;;17.62;66.35;99880.53;6345835;28;20039;-60
2021/06/12 02:43:46;;;;;;;5.32;2.67;;;;;;;17.62;65.64;99869.97;6346727;28;20492;-60
2021/06/12 02:46:48;;;;;;;4.53;2.58;;;;;;;17.64;66.20;99883.84;6345706;28;20134;-60
2021/06/12 02:49:50;;;;;;;3.10;2.60;;;;;;;17.64;66.16;99886.50;6345560;28;20097;-60
2021/06/12 02:52:53;;;;;;;;;;;;;;;17.67;66.35;99887.06;6347151;28;20503;-60
2021/06/12 02:55:58;;;;;;;4.20;2.88;;;;;;;17.70;67.73;99897.31;6346679;28;19919;-60
2021/06/12 02:59:07;;;;;;;4.20;2.70;;;;;;;17.70;68.10;99896.47;6345346;28;20410;-60
2021/06/12 03:02:10;;;;;;;4.47;2.90;;;;;;;17.65;67.19;99909.28;6346512;28;20414;-60
2021/06/12 03:05:15;;;;;;;5.18;3.03;;;;;;;17.71;68.87;99916.63;6346630;28;20143;-60
2021/06/12 03:08:18;;;;;;;4.47;2.75;;;;;;;17.75;67.60;99922.44;6346257;28;20047;-60
2021/06/12 03:11:22;;;;;;;4.22;2.90;;;;;;;17.76;67.50;99937.31;6345700;28;20048;-60
2021/06/12 03:14:25;;;;;;;5.22;3.08;;;;;;;17.77;67.34;99928.41;6346579;28;20059;-60
2021/06/12 03:17:28;;;;;;;3.78;2.70;;;;;;;17.78;67.44;99933.53;6346199;28;20040;-60
2021/06/12 03:20:30;;;;;;;7.40;3.05;;;;;;;17.83;68.44;99922.56;6345154;28;20097;-60
2021/06/12 03:23:32;;;;;;;4.68;3.05;;;;;;;17.88;67.20;99929.09;6345931;28;20128;-60
2021/06/12 03:26:34;;;;;;;3.00;2.70;;;;;;;17.89;66.30;99929.91;6344989;28;20035;-60
2021/06/12 03:29:35;;;;;;;4.47;2.65;;;;;;;17.90;67.71;99929.78;6346172;28;20074;-60
2021/06/12 03:32:37;;;;;;;4.35;2.85;;;;;;;17.85;67.01;99932.03;6346223;28;20153;-60
2021/06/12 03:35:38;;;;;;;3.83;3.10;;;;;;;17.83;67.38;99934.00;6327993;28;20040;-60
2021/06/12 03:38:40;;;;;;;5.28;2.95;;;;;;;17.72;67.86;99934.94;6346083;28;20120;-60
2021/06/12 03:41:41;;;;;;;4.63;2.50;;;;;;;17.66;68.51;99937.31;6346066;28;20244;-60
2021/06/12 03:44:45;;;;;;;4.17;2.90;;;;;;;17.75;67.68;99933.84;6345876;28;20044;-60
2021/06/12 03:47:48;;;;;;;6.45;3.13;;;;;;;17.65;68.87;99935.66;6345969;28;20044;-60
2021/06/12 03:50:53;;;;;;;6.85;3.13;;;;;;;17.69;68.67;99934.41;6345905;28;20414;-61
2021/06/12 03:53:55;;;;;;;4.25;3.00;;;;;;;17.73;69.40;99941.06;6346046;28;20138;-61
2021/06/12 03:56:56;;;;;;;;;;;;;;;17.72;69.28;99947.31;6346192;28;20047;-60
2021/06/12 03:59:57;;;;;;;3.95;2.70;;;;;;;17.77;70.33;99949.50;6344625;28;19920;-60
2021/06/12 04:02:58;;;;;;;5.87;3.07;;;;;;;17.83;68.43;99956.88;6345668;28;20063;-60
2021/06/12 04:05:59;;;;;;;4.63;3.03;;;;;;;17.94;67.56;99956.72;6344495;28;20081;-60
2021/06/12 04:08:59;;;;;;;6.15;2.80;;;;;;;18.05;66.73;99963.63;6344415;28;20660;-60
2021/06/12 04:12:00;;;;;;;4.15;3.42;;;;;;;18.19;66.74;99962.34;6344291;28;20047;-60
2021/06/12 04:15:01;;;;;;;5.15;2.65;;;;;;;18.36;65.69;99973.94;6345673;28;20047;-60
2021/06/12 04:18:08;;;;;;;4.93;2.75;;;;;;;18.47;65.87;99973.75;6344382;28;20036;-60
2021/06/12 04:21:08;;;;;;;8.25;3.03;;;;;;;18.58;65.23;99978.03;6347611;28;20070;-60
2021/06/12 04:24:09;;;;;;;3.17;2.70;;;;;;;18.54;65.36;99974.84;6348914;28;20051;-60
2021/06/12 04:27:10;;;;;;;4.68;2.85;;;;;;;18.63;64.56;99981.03;6350275;28;20051;-60
2021/06/12 04:30:13;;;;;;;4.63;3.30;;;;;;;18.70;65.43;99974.22;6348868;28;20043;-60
2021/06/12 04:33:14;;;;;;;3.50;3.05;;;;;;;18.78;64.36;99976.09;6348923;28;20123;-60
2021/06/12 04:36:15;;;;;;;4.83;3.10;;;;;;;18.89;66.12;99981.22;6348695;28;20046;-60
2021/06/12 04:39:16;;;;;;;4.35;3.15;;;;;;;18.95;64.39;99982.44;6348606;28;20124;-60
2021/06/12 04:42:20;;;;;;;4.28;3.15;;;;;;;18.98;65.22;99980.28;6348488;28;20151;-60
2021/06/12 04:45:21;;;;;;;3.90;2.70;;;;;;;19.00;65.18;99988.91;6349598;28;20493;-60
2021/06/12 04:48:22;;;;;;;5.07;3.35;;;;;;;19.00;65.48;99985.44;6348467;28;20044;-60
2021/06/12 04:51:23;;;;;;;6.03;3.30;;;;;;;19.02;65.29;99988.78;6349611;27;20051;-60
2021/06/12 04:54:24;;;;;;;6.03;3.00;;;;;;;19.02;64.36;99989.59;6349782;28;20397;-60
2021/06/12 04:57:24;;;;;;;4.57;3.10;;;;;;;19.03;64.95;99985.97;6349284;27;20466;-59
2021/06/12 05:00:25;;;;;;;4.07;3.08;;;;;;;19.08;64.03;99990.81;6349419;28;20039;-60
2021/06/12 05:03:26;;;;;;;3.22;2.90;;;;;;;19.14;63.96;99990.22;6349205;28;20047;-60
2021/06/12 05:06:27;;;;;;;4.85;2.75;;;;;;;19.28;64.19;99996.81;6349138;28;20357;-60
2021/06/12 05:09:28;;;;;;;6.40;3.53;;;;;;;19.46;61.67;99999.44;6348867;28;20090;-60
2021/06/12 05:12:28;;;;;;;6.70;3.47;;;;;;;19.65;62.87;100001.09;6349102;28;20092;-60
2021/06/12 05:15:30;;;;;;;5.70;3.70;;;;;;;19.71;61.88;99993.38;6348812;27;20466;-60
2021/06/12 05:18:39;;;;;;;4.38;3.35;;;;;;;19.80;60.89;99996.91;6348920;28;20051;-60
2021/06/12 05:21:40;;;;;;;5.22;2.97;;;;;;;19.86;60.42;100003.41;6347829;28;20044;-60
2021/06/12 05:24:41;;;;;;;5.50;2.93;;;;;;;19.86;59.43;100001.59;6347543;28;20050;-60
2021/06/12 05:27:42;;;;;;;13.85;3.38;;;;;;;19.89;57.45;99998.66;6347593;28;20059;-60
2021/06/12 05:30:43;;;;;;;6.35;3.15;;;;;;;19.88;59.47;100001.44;6348657;28;20473;-60
2021/06/12 05:33:44;;;;;;;4.07;3.05;;;;;;;19.89;57.95;100000.44;6329669;28;20444;-60
2021/06/12 05:36:45;;;;;;;5.53;3.00;;;;;;;19.90;58.07;100005.59;6348377;28;20069;-60
2021/06/12 05:39:45;;;;;;;5.28;3.20;;;;;;;19.99;59.34;100003.81;6347209;28;20543;-60
2021/06/12 05:42:46;;;;;;;7.60;3.17;;;;;;;20.03;58.19;100007.00;6347129;28;20428;-60
2021/06/12 05:45:47;;;;;;;4.13;3.43;;;;;;;20.07;57.62;100001.22;6348420;28;20040;-60
2021/06/12 05:48:48;;;;;;;5.87;3.27;;;;;;;20.10;56.84;100000.94;6348266;28;20051;-61
2021/06/12 05:51:49;;;;;;;10.67;3.60;;;;;;;20.18;56.51;100000.16;6348248;28;20043;-61
2021/06/12 05:54:50;;;;;;;5.40;3.20;;;;;;;20.27;56.65;100001.03;6348078;28;20058;-60
2021/06/12 05:57:50;;;;;;;10.07;3.80;;;;;;;20.32;57.67;100006.66;6346805;28;20063;-60
2021/06/12 06:00:51;;;;;;;5.47;3.40;;;;;;;20.41;57.27;99995.13;6329905;28;20066;-60
2021/06/12 06:03:52;;;;;;;4.97;3.30;;;;;;;20.46;56.88;99995.47;6346535;28;20485;-60
2021/06/12 06:06:53;;;;;;;5.00;3.40;;;;;;;20.56;57.20;99998.00;6346609;28;20505;-60
2021/06/12 06:09:54;;;;;;;6.17;3.20;;;;;;;20.62;55.24;99999.22;6347600;28;20426;-60
2021/06/12 06:13:00;;;;;;;7.40;3.10;;;;;;;20.69;57.48;100002.88;6347700;28;20321;-60
2021/06/12 06:16:01;;;;;;;7.00;3.50;;;;;;;20.75;57.17;100001.41;6347318;28;20046;-60
2021/06/12 06:19:02;;;;;;;4.70;3.50;;;;;;;20.81;56.75;100001.59;6347581;28;20067;-60
2021/06/12 06:22:03;;;;;;;6.05;3.70;;;;;;;20.88;55.54;100001.81;6341761;28;20048;-59
2021/06/12 06:25:06;;;;;;;5.33;3.17;;;;;;;21.00;55.07;100004.97;6363430;27;20098;-60
2021/06/12 06:28:07;;;;;;;6.97;4.75;;;;;;;21.02;55.30;100001.16;6347005;28;20043;-60
2021/06/12 06:31:08;;;;;;;8.53;5.43;;;;;;;21.10;55.20;99989.72;6331657;28;20551;-60
2021/06/12 06:34:09;;;;;;;8.33;4.97;;;;;;;21.19;55.55;100003.84;6343454;28;20586;-60
2021/06/12 06:37:10;;;;;;;6.63;3.70;;;;;;;21.31;55.13;99997.22;6348073;28;20136;-60
2021/06/12 06:40:11;;;;;;;3.70;3.07;;;;;;;21.41;54.42;100002.38;6348053;28;20265;-60
2021/06/12 06:43:13;;;;;;;3.17;2.65;;;;;;;21.51;52.94;99998.59;6347955;28;20075;-60
2021/06/12 06:46:14;;;;;;;7.43;3.00;;;;;;;21.62;52.61;99996.59;6347305;28;20052;-60
2021/06/12 06:49:14;;;;;;;4.47;2.70;;;;;;;21.67;52.80;100000.41;6328129;28;20031;-60
2021/06/12 06:52:15;;;;;;;5.60;2.80;;;;;;;21.69;53.06;100006.38;6347205;28;20036;-59
2021/06/12 06:55:17;;;;;;;4.50;3.00;;;;;;;21.75;53.50;100002.25;6347205;28;20138;-60
2021/06/12 06:58:18;;;;;;;4.88;2.63;;;;;;;21.80;52.56;99988.44;6345840;28;20486;-60
2021/06/12 07:01:19;;;;;;;6.20;3.00;;;;;;;21.83;50.10;99996.09;6345632;28;20104;-59
2021/06/12 07:04:19;;;;;;;7.23;2.90;;;;;;;21.93;52.77;99994.91;6339645;28;20040;-60
2021/06/12 07:07:20;;;;;;;4.07;2.80;;;;;;;22.04;51.94;99995.56;6346109;28;20051;-60
2021/06/12 07:10:21;;;;;;;4.60;2.93;;;;;;;22.17;52.65;100001.16;6338858;28;20060;-60
2021/06/12 07:13:23;;;;;;;3.20;2.87;;;;;;;22.31;50.96;99995.16;6340305;28;20047;-60
2021/06/12 07:16:24;;;;;;;5.30;2.65;;;;;;;22.29;48.16;100006.97;6346284;28;20044;-60
2021/06/12 07:19:25;;;;;;;2.87;2.13;;;;;;;22.32;49.13;100004.81;6341195;28;20093;-60
2021/06/12 07:22:25;;;;;;;3.00;2.57;;;;;;;22.38;47.81;100011.25;6323521;28;20113;-61
2021/06/12 07:25:26;;;;;;;5.57;2.60;;;;;;;22.40;47.87;100009.25;6311601;28;20393;-60
2021/06/12 07:28:27;;;;;;;5.03;2.70;;;;;;;22.40;48.70;100011.09;6320899;28;20048;-61
2021/06/12 07:31:28;;;;;;;4.53;2.90;;;;;;;22.47;48.48;100012.09;6320861;28;20102;-61
2021/06/12 07:34:28;;;;;;;8.20;3.10;;;;;;;22.51;49.05;100003.59;6320828;28;20043;-61
2021/06/12 07:37:29;;;;;;;4.40;2.40;;;;;;;22.58;49.03;100000.22;6319445;28;20059;-61
2021/06/12 07:40:30;;;;;;;3.17;2.30;;;;;;;22.58;48.06;100002.88;6319712;28;20406;-61
2021/06/12 07:43:31;;;;;;;4.30;3.45;;;;;;;22.61;47.86;100003.38;6320630;28;20044;-61
2021/06/12 07:46:33;;;;;;;3.40;2.33;;;;;;;22.58;45.90;99997.56;6322437;28;20052;-60
2021/06/12 07:49:34;;;;;;;5.28;2.75;;;;;;;22.65;48.85;100009.16;6344412;28;20407;-60
2021/06/12 07:52:34;;;;;;;7.87;2.50;;;;;;;22.71;48.01;100006.66;6345677;28;20044;-60
2021/06/12 07:55:35;;;;;;;3.77;2.10;;;;;;;22.85;46.78;100002.41;6346222;28;20036;-61
2021/06/12 07:58:36;;;;;;;6.30;2.70;;;;;;;22.91;47.66;99996.38;6350994;28;20539;-61
2021/06/12 08:01:37;;;;;;;2.97;2.60;;;;;;;22.99;46.67;100000.03;6351003;28;20043;-61
2021/06/12 08:04:38;;;;;;;5.93;2.38;;;;;;;23.06;49.28;100001.00;6349581;28;20075;-61
2021/06/12 08:07:39;;;;;;;5.87;2.43;;;;;;;23.13;48.00;100008.09;6332643;28;20048;-60
2021/06/12 08:10:40;;;;;;;2.93;2.27;;;;;;;23.20;46.74;100004.75;6329922;28;20515;-61
2021/06/12 08:13:40;;;;;;;2.97;2.40;;;;;;;23.20;46.24;100002.06;6344961;28;20428;-61
2021/06/12 08:16:41;;;;;;;5.13;2.50;;;;;;;23.34;46.17;100004.78;6330567;28;20043;-62
2021/06/12 08:19:42;;;;;;;8.00;3.20;;;;;;;23.38;46.11;100005.28;6350329;28;20128;-61
2021/06/12 08:22:43;;;;;;;4.05;2.55;;;;;;;23.40;45.34;99997.94;6349223;28;20035;-62
2021/06/12 08:25:44;;;;;;;7.30;2.65;;;;;;;23.45;45.63;100000.06;6349979;28;20040;-61
2021/06/12 08:28:46;;;;;;;9.15;3.03;;;;;;;23.60;43.87;100000.13;6350194;28;20035;-61
2021/06/12 08:31:47;;;;;;;4.68;3.17;;;;;;;23.66;42.50;99996.72;6348959;28;20040;-60
2021/06/12 08:34:48;;;;;;;6.63;2.73;;;;;;;23.63;43.23;100007.75;6348765;28;20039;-61
2021/06/12 08:37:48;;;;;;;3.43;2.80;;;;;;;23.53;42.59;99995.50;6348610;28;20039;-60
2021/06/12 08:40:49;;;;;;;5.60;2.67;;;;;;;23.51;43.13;99997.53;6349908;28;20084;-61
2021/06/12 08:43:57;;;;;;;4.03;2.72;;;;;;;23.67;45.44;99999.19;6349765;28;20044;-60
2021/06/12 08:46:58;;;;;;;3.33;2.65;;;;;;;23.74;43.36;99996.63;6349679;28;20047;-61
2021/06/12 08:50:00;;;;;;;4.07;2.90;;;;;;;23.81;41.82;100007.44;6350090;27;20483;-61
2021/06/12 08:53:01;;;;;;;3.50;2.42;;;;;;;23.91;44.29;100002.69;6349573;28;20085;-60
2021/06/12 08:56:02;;;;;;;4.27;2.83;;;;;;;23.99;42.93;99994.63;6349638;28;20047;-59
2021/06/12 08:59:04;;;;;;;3.65;2.40;;;;;;;24.09;43.69;99992.50;6349490;28;20043;-60
2021/06/12 09:02:06;;;;;;;5.40;2.70;;;;;;;24.03;40.86;99987.91;6348700;28;20042;-60
2021/06/12 09:05:07;;;;;;;4.18;2.58;;;;;;;24.20;43.32;99985.91;6349261;28;20066;-60
2021/06/12 09:08:09;;;;;;;3.90;2.70;;;;;;;24.42;43.54;99976.16;6346813;28;20040;-59
2021/06/12 09:11:10;;;;;;;4.60;2.60;;;;;;;24.46;40.98;99982.75;6364983;27;20550;-59
2021/06/12 09:14:11;;;;;;;3.85;2.55;;;;;;;24.36;41.45;99978.69;6349137;28;20040;-60
2021/06/12 09:17:14;;;;;;;4.22;2.78;;;;;;;24.38;43.07;99976.69;6348963;28;20043;-60
2021/06/12 09:20:18;;;;;;;4.90;2.70;;;;;;;24.50;40.55;99985.88;6348885;28;20118;-60
2021/06/12 09:23:19;;;;;;;5.10;2.70;;;;;;;24.59;40.67;99983.97;6348688;28;20122;-60
2021/06/12 09:26:21;;;;;;;4.68;2.75;;;;;;;24.59;40.11;99978.63;6347283;28;20085;-60
2021/06/12 09:29:33;;;;;;;6.22;2.55;;;;;;;24.73;42.26;99972.44;6349084;28;20443;-60
2021/06/12 09:32:45;;;;;;;30.98;3.65;;;;;;;24.79;41.01;99976.19;6347626;28;20048;-60
2021/06/12 09:35:46;;;;;;;16.60;2.90;;;;;;;24.90;41.30;99973.84;6348457;28;20045;-61
2021/06/12 09:38:47;;;;;;;14.05;3.10;;;;;;;24.61;40.06;99976.59;6348538;28;20051;-59
2021/06/12 09:41:55;;;;;;;599.57;39.47;;;;;;;24.24;40.34;99967.69;6347342;28;20105;-64
2021/06/12 09:45:03;;;;;;;14.48;3.22;;;;;;;24.24;39.90;99968.50;6348878;28;20046;-66
2021/06/12 09:48:08;;;;;;;4.32;2.17;;;;;;;24.30;40.10;99969.63;6347099;28;20036;-66
2021/06/12 09:51:12;;;;;;;7.60;2.67;;;;;;;24.46;42.32;99965.91;6348255;28;20039;-66
2021/06/12 09:54:12;;;;;;;6.60;2.80;;;;;;;24.69;41.53;99958.66;6347115;28;20035;-67
2021/06/12 09:57:16;;;;;;;5.83;2.63;;;;;;;24.94;42.05;99959.13;6346709;28;20144;-67
2021/06/12 10:00:27;;;;;;;4.13;2.70;;;;;;;25.12;39.62;99958.69;6346983;28;20039;-66
2021/06/12 10:03:31;;;;;;;5.50;2.70;;;;;;;25.25;42.80;99951.84;6346845;28;20412;-69
2021/06/12 10:06:32;;;;;;;5.28;1.60;;;;;;;25.11;36.36;99948.19;6347858;28;20084;-70
2021/06/12 10:09:33;;;;;;;3.33;1.92;;;;;;;25.16;36.91;99953.78;6347602;28;20035;-68
2021/06/12 10:12:34;;;;;;;6.32;2.17;;;;;;;25.20;36.42;99948.88;6346626;28;20455;-70
2021/06/12 10:15:36;;;;;;;;;;;;;;;25.36;36.37;99942.50;6348073;28;20067;-70
2021/06/12 10:18:39;;;;;;;2.80;2.00;;;;;;;25.49;37.31;99937.25;6345939;28;19919;-68
2021/06/12 10:21:40;;;;;;;5.85;2.00;;;;;;;25.61;36.10;99921.50;6347785;28;20063;-68
2021/06/12 10:24:41;;;;;;;2.80;2.20;;;;;;;25.87;37.74;99927.03;6346134;28;20076;-66
2021/06/12 10:27:43;;;;;;;4.68;2.20;;;;;;;25.87;36.74;99927.03;6346189;28;20074;-70
2021/06/12 10:30:44;;;;;;;;;;;;;;;25.99;37.34;99931.88;6346483;28;20050;-67
2021/06/12 10:33:47;;;;;;;3.30;2.10;;;;;;;25.80;33.81;99925.31;6346120;28;19920;-68
2021/06/12 10:37:01;;;;;;;3.83;2.30;;;;;;;25.66;35.25;99917.25;6345882;28;20043;-68
2021/06/12 10:40:04;;;;;;;7.45;2.20;;;;;;;25.67;36.77;99913.53;6347185;28;20383;-68
2021/06/12 10:43:10;;;;;;;5.65;2.10;;;;;;;25.76;36.57;99916.06;6347019;28;20047;-67
2021/06/12 10:46:13;;;;;;;4.15;2.45;;;;;;;25.70;37.83;99912.34;6346998;28;20477;-67
2021/06/12 10:49:31;;;;;;;3.00;2.30;;;;;;;25.94;37.39;99908.38;6346805;28;20101;-67
2021/06/12 10:52:42;;;;;;;3.65;2.35;;;;;;;26.07;38.21;99902.31;6346891;28;20490;-68
2021/06/12 10:55:49;;;;;;;3.72;2.17;;;;;;;25.96;36.11;99906.34;6328632;28;20122;-67
2021/06/12 10:58:50;;;;;;;4.38;2.40;;;;;;;25.67;36.34;99900.19;6346749;28;20039;-67
2021/06/12 11:02:04;;;;;;;4.90;2.40;;;;;;;25.48;36.02;99907.03;6346709;28;20035;-69
2021/06/12 11:05:06;;;;;;;3.67;2.08;;;;;;;25.91;36.05;99900.78;6345427;28;20036;-68
2021/06/12 11:08:16;;;;;;;7.13;2.20;;;;;;;26.08;36.79;99896.72;6346587;28;20044;-68
2021/06/12 11:11:32;;;;;;;5.43;2.13;;;;;;;26.20;36.20;99888.97;6362187;27;20066;-68
2021/06/12 11:14:35;;;;;;;4.18;2.47;;;;;;;26.33;37.51;99896.22;6346397;28;20054;-70
2021/06/12 11:17:37;;;;;;;6.10;2.80;;;;;;;25.87;38.38;99888.78;6346328;28;20043;-69
2021/06/12 11:20:45;;;;;;;3.30;2.22;;;;;;;25.98;36.91;99892.78;6362264;27;20035;-69
2021/06/12 11:23:48;;;;;;;4.43;2.40;;;;;;;26.06;37.56;99885.41;6346291;28;20092;-68
2021/06/12 11:26:58;;;;;;;3.88;2.10;;;;;;;25.83;38.15;99888.34;6346196;28;20398;-69
2021/06/12 11:30:19;;;;;;;2.83;2.10;;;;;;;26.01;37.43;99879.84;6345443;28;20482;-74
2021/06/12 11:33:21;;;;;;;3.65;2.15;;;;;;;26.33;37.89;99872.97;6344920;28;20043;-70
2021/06/12 11:36:25;;;;;;;4.47;2.20;;;;;;;26.78;34.73;99869.00;6346054;28;20040;-68
2021/06/12 11:39:26;;;;;;;3.88;2.20;;;;;;;26.93;34.96;99867.78;6344705;28;20122;-69
2021/06/12 11:42:45;;;;;;;4.75;2.30;;;;;;;27.24;35.29;99863.69;6344964;28;20110;-69
2021/06/12 11:45:46;;;;;;;4.50;2.55;;;;;;;27.33;33.10;99849.03;6346035;28;20046;-70
2021/06/12 11:48:50;;;;;;;5.43;2.10;;;;;;;27.43;32.32;99845.13;6345993;28;20540;-68
2021/06/12 11:51:52;;;;;;;4.75;1.90;;;;;;;27.83;31.65;99837.78;6345945;28;20375;-66
2021/06/12 11:54:53;;;;;;;2.70;1.80;;;;;;;26.59;34.32;99836.66;6346014;28;20135;-66
2021/06/12 11:57:55;;;;;;;2.70;2.00;;;;;;;26.49;35.59;99841.53;6344680;28;20444;-66
2021/06/12 12:00:56;;;;;;;3.85;2.00;;;;;;;27.26;34.43;99829.50;6345769;28;20081;-68
2021/06/12 12:04:03;;;;;;;4.03;2.58;;;;;;;27.76;32.51;99823.59;6345741;28;20553;-68
2021/06/12 12:07:06;;;;;;;2.30;2.10;;;;;;;27.99;31.35;99819.63;6344621;28;20040;-67
2021/06/12 12:10:08;;;;;;;3.05;2.22;;;;;;;28.97;29.73;99815.69;6345401;28;20055;-68
2021/06/12 12:13:39;;;;;;;2.28;1.90;;;;;;;30.76;28.33;99815.41;6327545;28;20051;-67
2021/06/12 12:16:40;;;;;;;2.53;1.80;;;;;;;31.25;26.72;99817.94;6344063;27;20051;-67
2021/06/12 12:19:42;;;;;;;3.42;1.83;;;;;;;31.48;27.27;99807.19;6344360;28;20483;-67
2021/06/12 12:22:47;;;;;;;2.88;2.10;;;;;;;32.34;25.12;99809.13;6327659;28;20051;-67
2021/06/12 12:25:51;;;;;;;5.88;1.70;;;;;;;33.44;24.81;99798.72;6345475;28;20050;-66
2021/06/12 12:28:57;;;;;;;2.08;1.70;;;;;;;34.25;23.84;99799.94;6345481;28;20044;-67
2021/06/12 12:32:01;;;;;;;2.45;1.55;;;;;;;34.96;22.21;99801.63;6345526;28;20523;-67
2021/06/12 12:35:13;;;;;;;2.63;1.58;;;;;;;35.22;21.33;99789.88;6345472;28;20551;-66
2021/06/12 12:38:17;;;;;;;3.35;1.80;;;;;;;34.80;21.79;99787.13;6344163;28;20040;-69
2021/06/12 12:41:17;;;;;;;2.60;1.70;;;;;;;33.64;23.65;99787.34;6345883;28;20067;-69
2021/06/12 12:44:19;;;;;;;2.10;1.70;;;;;;;34.34;21.41;99789.47;6349772;28;20036;-70
2021/06/12 12:47:29;;;;;;;3.63;1.58;;;;;;;35.38;21.38;99788.06;6350010;28;20036;-68
2021/06/12 12:50:30;;;;;;;2.37;1.57;;;;;;;34.81;21.00;99788.78;6349914;28;20040;-69
2021/06/12 12:53:41;;;;;;;3.08;1.60;;;;;;;35.71;20.74;99772.50;6349758;27;20040;-69
2021/06/12 12:56:55;;;;;;;3.20;2.33;;;;;;;35.05;21.50;99781.09;6349608;28;20042;-68
2021/06/12 12:59:56;;;;;;;1.63;1.38;;;;;;;34.76;21.32;99777.91;6348436;28;20039;-71
2021/06/12 13:03:02;;;;;;;3.58;2.10;;;;;;;33.63;22.07;99765.97;6348243;28;20043;-68
2021/06/12 13:06:03;;;;;;;5.13;1.80;;;;;;;35.07;19.74;99768.91;6349405;28;20052;-68
2021/06/12 13:09:17;;;;;;;5.97;3.20;;;;;;;33.44;21.09;99765.44;6349315;28;20048;-68
2021/06/12 13:12:19;;;;;;;5.60;1.90;;;;;;;34.72;21.41;99753.25;6348030;28;20496;-68
2021/06/12 13:15:20;;;;;;;6.80;1.50;;;;;;;34.40;20.55;99758.66;6349072;28;20104;-68
2021/06/12 13:18:21;;;;;;;2.90;2.35;;;;;;;33.78;22.39;99759.91;6347882;28;20462;-68
2021/06/12 13:21:22;;;;;;;4.25;1.90;;;;;;;32.87;23.31;99748.44;6331364;28;20040;-68
2021/06/12 13:24:23;;;;;;;4.82;1.90;;;;;;;32.41;24.66;99744.16;6348847;28;20122;-67
2021/06/12 13:27:54;;;;;;;6.47;1.90;;;;;;;31.88;25.64;99746.19;6348785;28;20122;-68
2021/06/12 13:30:55;;;;;;;2.63;1.92;;;;;;;31.05;24.74;99748.25;6348863;28;20404;-73
2021/06/12 13:33:55;;;;;;;;;;;;;;;31.26;23.68;99749.53;6349734;28;20044;-68
2021/06/12 13:37:03;;;;;;;2.80;1.97;;;;;;;31.19;25.48;99746.13;6349470;28;19923;-67
2021/06/12 13:40:04;;;;;;;2.25;1.50;;;;;;;31.07;25.88;99738.06;6331490;28;20047;-68
2021/06/12 13:43:16;;;;;;;2.63;1.80;;;;;;;30.85;25.49;99741.31;6348132;28;20067;-68
2021/06/12 13:46:18;;;;;;;3.17;1.88;;;;;;;30.52;26.44;99742.72;6365076;27;20089;-67
2021/06/12 13:49:19;;;;;;;3.25;1.73;;;;;;;30.05;27.47;99739.06;6349124;28;20073;-67
2021/06/12 13:52:20;;;;;;;4.03;1.80;;;;;;;29.25;27.17;99729.31;6330976;28;20031;-68
2021/06/12 13:55:21;;;;;;;9.48;6.40;;;;;;;29.17;28.88;99734.97;6347187;28;20096;-68
2021/06/12 13:58:22;;;;;;;2.88;1.83;;;;;;;29.63;27.43;99731.75;6349178;28;20509;-67
2021/06/12 14:01:23;;;;;;;5.32;1.92;;;;;;;29.63;25.42;99728.22;6348695;28;20051;-68
2021/06/12 14:04:24;;;;;;;5.68;1.90;;;;;;;29.76;27.88;99725.41;6347503;28;20044;-68
2021/06/12 14:07:25;;;;;;;2.35;1.83;;;;;;;29.73;27.69;99726.69;6347464;28;20040;-69
2021/06/12 14:10:26;;;;;;;5.55;2.42;;;;;;;29.39;28.72;99724.59;6347293;28;20047;-68
2021/06/12 14:13:27;;;;;;;2.67;1.80;;;;;;;29.62;27.90;99722.03;6348518;28;20127;-68
2021/06/12 14:16:28;;;;;;;2.65;2.00;;;;;;;29.63;28.92;99721.00;6348505;28;20047;-68
2021/06/12 14:19:29;;;;;;;3.63;1.83;;;;;;;29.67;28.23;99727.56;6347936;27;20039;-68
2021/06/12 14:22:30;;;;;;;5.13;1.80;;;;;;;29.48;28.70;99726.75;6347609;28;20534;-70